sensor_id;sensor_type;location;lat;lon;timestamp;pressure;altitude;pressure_sealevel;temperature;humidity
11678;BME280;5895;41.950;24.372;2023-03-20T00:01:46;87095.50;;;2.37;61.68
11678;BME280;5895;41.950;24.372;2023-03-20T00:04:16;87094.88;;;2.35;62.30
11678;BME280;5895;41.950;24.372;2023-03-20T00:06:43;87090.13;;;2.32;61.30
11678;BME280;5895;41.950;24.372;2023-03-20T00:09:10;87095.41;;;2.30;61.99
11678;BME280;5895;41.950;24.372;2023-03-20T00:11:43;87087.28;;;2.27;63.26
11678;BME280;5895;41.950;24.372;2023-03-20T00:14:14;87097.22;;;2.22;62.45
11678;BME280;5895;41.950;24.372;2023-03-20T00:16:42;87087.00;;;2.22;62.45
11678;BME280;5895;41.950;24.372;2023-03-20T00:19:14;87085.41;;;2.21;63.04
11678;BME280;5895;41.950;24.372;2023-03-20T00:21:43;87089.28;;;2.17;62.64
11678;BME280;5895;41.950;24.372;2023-03-20T00:24:11;87080.19;;;2.14;62.00
11678;BME280;5895;41.950;24.372;2023-03-20T00:26:38;87086.16;;;2.06;62.28
11678;BME280;5895;41.950;24.372;2023-03-20T00:29:06;87082.38;;;2.02;62.63
11678;BME280;5895;41.950;24.372;2023-03-20T00:31:35;87084.56;;;2.05;63.49
11678;BME280;5895;41.950;24.372;2023-03-20T00:34:04;87075.13;;;2.06;63.74
11678;BME280;5895;41.950;24.372;2023-03-20T00:36:32;87070.19;;;2.04;63.10
11678;BME280;5895;41.950;24.372;2023-03-20T00:39:01;87080.41;;;2.04;63.46
11678;BME280;5895;41.950;24.372;2023-03-20T00:41:30;87080.41;;;2.04;63.91
11678;BME280;5895;41.950;24.372;2023-03-20T00:44:00;87071.75;;;2.05;63.85
11678;BME280;5895;41.950;24.372;2023-03-20T00:46:36;87070.97;;;2.05;63.73
11678;BME280;5895;41.950;24.372;2023-03-20T00:49:04;87065.84;;;2.05;63.64
11678;BME280;5895;41.950;24.372;2023-03-20T00:51:32;87067.13;;;2.09;63.65
11678;BME280;5895;41.950;24.372;2023-03-20T00:54:00;87067.13;;;2.09;64.02
11678;BME280;5895;41.950;24.372;2023-03-20T00:56:31;87066.75;;;2.12;64.59
11678;BME280;5895;41.950;24.372;2023-03-20T00:59:00;87067.72;;;2.11;64.21
11678;BME280;5895;41.950;24.372;2023-03-20T01:01:29;87060.50;;;2.15;64.35
11678;BME280;5895;41.950;24.372;2023-03-20T01:03:58;87058.56;;;2.17;63.82
11678;BME280;5895;41.950;24.372;2023-03-20T01:06:25;87055.38;;;2.15;64.05
11678;BME280;5895;41.950;24.372;2023-03-20T01:08:53;87058.09;;;2.13;64.47
11678;BME280;5895;41.950;24.372;2023-03-20T01:11:23;87053.94;;;2.12;64.39
11678;BME280;5895;41.950;24.372;2023-03-20T01:13:51;87060.03;;;2.11;64.15
11678;BME280;5895;41.950;24.372;2023-03-20T01:16:21;87052.56;;;2.09;65.47
11678;BME280;5895;41.950;24.372;2023-03-20T01:18:49;87045.84;;;2.08;65.25
11678;BME280;5895;41.950;24.372;2023-03-20T01:21:17;87051.25;;;2.14;65.01
11678;BME280;5895;41.950;24.372;2023-03-20T01:23:45;87050.28;;;2.15;65.54
11678;BME280;5895;41.950;24.372;2023-03-20T01:26:20;87042.41;;;2.16;66.43
11678;BME280;5895;41.950;24.372;2023-03-20T01:28:49;87053.81;;;2.14;65.58
11678;BME280;5895;41.950;24.372;2023-03-20T01:31:17;87049.34;;;2.07;65.24
11678;BME280;5895;41.950;24.372;2023-03-20T01:33:45;87038.97;;;2.09;65.47
11678;BME280;5895;41.950;24.372;2023-03-20T01:36:13;87041.53;;;2.09;65.11
11678;BME280;5895;41.950;24.372;2023-03-20T01:38:42;87042.03;;;2.04;65.10
11678;BME280;5895;41.950;24.372;2023-03-20T01:41:12;87040.72;;;2.08;65.41
11678;BME280;5895;41.950;24.372;2023-03-20T01:43:39;87034.00;;;2.07;65.33
11678;BME280;5895;41.950;24.372;2023-03-20T01:46:16;87027.38;;;2.13;66.94
11678;BME280;5895;41.950;24.372;2023-03-20T01:49:00;87032.06;;;2.09;67.28
11678;BME280;5895;41.950;24.372;2023-03-20T01:51:31;87031.63;;;2.06;64.73
11678;BME280;5895;41.950;24.372;2023-03-20T01:54:02;87034.63;;;2.09;65.73
11678;BME280;5895;41.950;24.372;2023-03-20T01:56:36;87034.28;;;2.12;66.03
11678;BME280;5895;41.950;24.372;2023-03-20T01:59:09;87033.06;;;2.08;66.89
11678;BME280;5895;41.950;24.372;2023-03-20T02:01:41;87036.72;;;2.06;65.60
11678;BME280;5895;41.950;24.372;2023-03-20T02:04:08;87031.97;;;2.03;65.30
11678;BME280;5895;41.950;24.372;2023-03-20T02:06:37;87028.50;;;1.96;65.31
11678;BME280;5895;41.950;24.372;2023-03-20T02:09:06;87028.34;;;1.97;65.47
11678;BME280;5895;41.950;24.372;2023-03-20T02:11:36;87029.66;;;1.93;65.47
11678;BME280;5895;41.950;24.372;2023-03-20T02:14:04;87029.69;;;1.85;65.75
11678;BME280;5895;41.950;24.372;2023-03-20T02:16:32;87035.19;;;1.82;65.70
11678;BME280;5895;41.950;24.372;2023-03-20T02:19:00;87025.63;;;1.76;65.81
11678;BME280;5895;41.950;24.372;2023-03-20T02:22:07;87030.75;;;1.76;68.93
11678;BME280;5895;41.950;24.372;2023-03-20T02:24:58;87030.28;;;1.72;67.92
11678;BME280;5895;41.950;24.372;2023-03-20T02:27:34;87031.44;;;1.70;66.60
11678;BME280;5895;41.950;24.372;2023-03-20T02:33:36;87029.41;;;1.65;67.98
11678;BME280;5895;41.950;24.372;2023-03-20T02:36:36;87020.28;;;1.63;68.33
11678;BME280;5895;41.950;24.372;2023-03-20T02:39:29;87020.66;;;1.59;67.93
11678;BME280;5895;41.950;24.372;2023-03-20T02:42:02;87011.22;;;1.60;65.88
11678;BME280;5895;41.950;24.372;2023-03-20T02:44:38;87009.44;;;1.61;66.81
11678;BME280;5895;41.950;24.372;2023-03-20T02:47:13;87015.16;;;1.63;66.38
11678;BME280;5895;41.950;24.372;2023-03-20T02:49:52;87005.31;;;1.59;67.33
11678;BME280;5895;41.950;24.372;2023-03-20T02:52:29;87002.13;;;1.57;67.09
11678;BME280;5895;41.950;24.372;2023-03-20T02:55:09;87004.03;;;1.55;68.17
11678;BME280;5895;41.950;24.372;2023-03-20T02:57:46;87007.56;;;1.54;67.33
11678;BME280;5895;41.950;24.372;2023-03-20T03:00:23;87006.59;;;1.55;67.52
11678;BME280;5895;41.950;24.372;2023-03-20T03:03:00;87002.78;;;1.51;67.29
11678;BME280;5895;41.950;24.372;2023-03-20T03:05:35;87005.53;;;1.50;66.92
11678;BME280;5895;41.950;24.372;2023-03-20T03:08:05;87006.16;;;1.52;66.34
11678;BME280;5895;41.950;24.372;2023-03-20T03:10:40;87008.88;;;1.50;66.60
11678;BME280;5895;41.950;24.372;2023-03-20T03:13:12;87008.25;;;1.48;67.29
11678;BME280;5895;41.950;24.372;2023-03-20T03:15:43;87005.34;;;1.51;66.30
11678;BME280;5895;41.950;24.372;2023-03-20T03:18:14;87006.97;;;1.52;66.26
11678;BME280;5895;41.950;24.372;2023-03-20T03:20:44;87006.00;;;1.53;66.01
11678;BME280;5895;41.950;24.372;2023-03-20T03:23:19;86997.06;;;1.49;67.40
11678;BME280;5895;41.950;24.372;2023-03-20T03:25:51;86996.44;;;1.47;66.66
11678;BME280;5895;41.950;24.372;2023-03-20T03:28:25;87003.16;;;1.48;66.84
11678;BME280;5895;41.950;24.372;2023-03-20T03:30:55;87008.16;;;1.42;66.03
11678;BME280;5895;41.950;24.372;2023-03-20T03:33:24;87005.13;;;1.38;65.73
11678;BME280;5895;41.950;24.372;2023-03-20T03:35:58;87008.19;;;1.33;66.45
11678;BME280;5895;41.950;24.372;2023-03-20T03:38:32;87013.66;;;1.30;66.83
11678;BME280;5895;41.950;24.372;2023-03-20T03:41:18;87008.69;;;1.29;68.45
11678;BME280;5895;41.950;24.372;2023-03-20T03:43:51;87000.41;;;1.27;67.27
11678;BME280;5895;41.950;24.372;2023-03-20T03:46:25;86996.88;;;1.28;66.89
11678;BME280;5895;41.950;24.372;2023-03-20T03:48:56;87006.50;;;1.26;66.83
11678;BME280;5895;41.950;24.372;2023-03-20T03:51:27;87010.63;;;1.27;66.48
11678;BME280;5895;41.950;24.372;2023-03-20T03:53:59;87003.59;;;1.29;67.38
11678;BME280;5895;41.950;24.372;2023-03-20T03:56:30;86993.34;;;1.29;66.67
11678;BME280;5895;41.950;24.372;2023-03-20T03:59:02;86998.47;;;1.29;66.96
11678;BME280;5895;41.950;24.372;2023-03-20T04:01:30;87002.00;;;1.28;66.88
11678;BME280;5895;41.950;24.372;2023-03-20T04:04:02;87008.69;;;1.29;66.65
11678;BME280;5895;41.950;24.372;2023-03-20T04:06:31;87008.06;;;1.27;66.50
11678;BME280;5895;41.950;24.372;2023-03-20T04:08:58;87003.47;;;1.22;65.89
11678;BME280;5895;41.950;24.372;2023-03-20T04:11:25;87004.16;;;1.16;65.95
11678;BME280;5895;41.950;24.372;2023-03-20T04:13:55;87001.78;;;1.15;66.03
11678;BME280;5895;41.950;24.372;2023-03-20T04:16:23;87000.81;;;1.16;66.14
11678;BME280;5895;41.950;24.372;2023-03-20T04:18:51;86988.03;;;1.16;66.53
11678;BME280;5895;41.950;24.372;2023-03-20T04:21:20;86992.34;;;1.15;66.27
11678;BME280;5895;41.950;24.372;2023-03-20T04:23:47;86996.03;;;1.13;67.05
11678;BME280;5895;41.950;24.372;2023-03-20T04:26:14;86996.97;;;1.12;66.86
11678;BME280;5895;41.950;24.372;2023-03-20T04:28:41;86991.88;;;1.12;66.38
11678;BME280;5895;41.950;24.372;2023-03-20T04:31:10;86996.97;;;1.12;66.71
11678;BME280;5895;41.950;24.372;2023-03-20T04:33:37;87000.50;;;1.11;65.91
11678;BME280;5895;41.950;24.372;2023-03-20T04:36:05;86995.56;;;1.09;66.70
11678;BME280;5895;41.950;24.372;2023-03-20T04:38:36;87000.50;;;1.11;67.21
11678;BME280;5895;41.950;24.372;2023-03-20T04:41:03;86997.97;;;1.11;66.47
11678;BME280;5895;41.950;24.372;2023-03-20T04:43:30;87002.09;;;1.12;66.47
11678;BME280;5895;41.950;24.372;2023-03-20T04:45:59;86999.22;;;1.15;66.74
11678;BME280;5895;41.950;24.372;2023-03-20T04:48:27;87004.94;;;1.17;66.32
11678;BME280;5895;41.950;24.372;2023-03-20T04:50:54;87008.13;;;1.19;66.53
11678;BME280;5895;41.950;24.372;2023-03-20T04:53:22;87004.63;;;1.20;66.45
11678;BME280;5895;41.950;24.372;2023-03-20T04:55:49;87001.28;;;1.19;66.49
11678;BME280;5895;41.950;24.372;2023-03-20T04:58:16;87010.53;;;1.20;66.47
11678;BME280;5895;41.950;24.372;2023-03-20T05:00:44;87014.47;;;1.23;66.32
11678;BME280;5895;41.950;24.372;2023-03-20T05:03:11;87018.47;;;1.25;65.98
11678;BME280;5895;41.950;24.372;2023-03-20T05:05:40;87016.72;;;1.26;66.48
11678;BME280;5895;41.950;24.372;2023-03-20T05:08:07;87020.84;;;1.27;65.95
11678;BME280;5895;41.950;24.372;2023-03-20T05:10:34;87014.78;;;1.28;65.92
11678;BME280;5895;41.950;24.372;2023-03-20T05:13:01;87017.97;;;1.30;65.53
11678;BME280;5895;41.950;24.372;2023-03-20T05:15:28;87022.13;;;1.31;65.88
11678;BME280;5895;41.950;24.372;2023-03-20T05:17:56;87025.28;;;1.33;65.60
11678;BME280;5895;41.950;24.372;2023-03-20T05:20:23;87024.31;;;1.34;65.45
11678;BME280;5895;41.950;24.372;2023-03-20T05:22:52;87017.91;;;1.38;65.49
11678;BME280;5895;41.950;24.372;2023-03-20T05:25:19;87012.47;;;1.41;65.90
11678;BME280;5895;41.950;24.372;2023-03-20T05:27:46;87010.53;;;1.43;65.39
11678;BME280;5895;41.950;24.372;2023-03-20T05:30:14;87018.81;;;1.45;65.78
11678;BME280;5895;41.950;24.372;2023-03-20T05:32:41;87017.50;;;1.49;65.95
11678;BME280;5895;41.950;24.372;2023-03-20T05:35:08;87022.31;;;1.52;65.30
11678;BME280;5895;41.950;24.372;2023-03-20T05:37:36;87027.84;;;1.56;65.38
11678;BME280;5895;41.950;24.372;2023-03-20T05:40:06;87023.03;;;1.61;65.36
11678;BME280;5895;41.950;24.372;2023-03-20T05:42:33;87022.50;;;1.66;64.83
11678;BME280;5895;41.950;24.372;2023-03-20T05:45:01;87025.34;;;1.71;65.13
11678;BME280;5895;41.950;24.372;2023-03-20T05:47:28;87023.69;;;1.78;65.23
11678;BME280;5895;41.950;24.372;2023-03-20T05:49:55;87028.31;;;1.82;64.58
11678;BME280;5895;41.950;24.372;2023-03-20T05:52:22;87022.66;;;1.87;64.37
11678;BME280;5895;41.950;24.372;2023-03-20T05:54:49;87027.09;;;1.93;64.57
11678;BME280;5895;41.950;24.372;2023-03-20T05:57:18;87021.56;;;2.04;64.22
11678;BME280;5895;41.950;24.372;2023-03-20T05:59:45;87022.53;;;2.18;63.77
11678;BME280;5895;41.950;24.372;2023-03-20T06:02:12;87024.16;;;2.34;63.60
11678;BME280;5895;41.950;24.372;2023-03-20T06:04:39;87025.31;;;2.46;63.95
11678;BME280;5895;41.950;24.372;2023-03-20T06:07:06;87024.53;;;2.60;62.99
11678;BME280;5895;41.950;24.372;2023-03-20T06:09:33;87015.44;;;2.73;63.74
11678;BME280;5895;41.950;24.372;2023-03-20T06:12:00;87018.16;;;2.86;63.59
11678;BME280;5895;41.950;24.372;2023-03-20T06:14:29;87014.19;;;2.98;63.76
11678;BME280;5895;41.950;24.372;2023-03-20T06:16:56;87021.03;;;3.12;63.08
11678;BME280;5895;41.950;24.372;2023-03-20T06:19:23;87010.13;;;3.25;62.77
11678;BME280;5895;41.950;24.372;2023-03-20T06:21:50;87010.09;;;3.40;62.58
11678;BME280;5895;41.950;24.372;2023-03-20T06:24:17;87011.84;;;3.54;62.93
11678;BME280;5895;41.950;24.372;2023-03-20T06:26:44;87002.50;;;3.68;62.49
11678;BME280;5895;41.950;24.372;2023-03-20T06:29:11;87007.75;;;3.81;62.72
11678;BME280;5895;41.950;24.372;2023-03-20T06:31:39;87012.63;;;3.97;62.07
11678;BME280;5895;41.950;24.372;2023-03-20T06:34:07;87013.16;;;4.14;62.24
11678;BME280;5895;41.950;24.372;2023-03-20T06:36:34;87007.41;;;4.34;61.62
11678;BME280;5895;41.950;24.372;2023-03-20T06:39:01;87013.66;;;4.53;61.51
11678;BME280;5895;41.950;24.372;2023-03-20T06:41:28;87012.78;;;4.73;60.49
11678;BME280;5895;41.950;24.372;2023-03-20T06:43:55;87006.19;;;4.99;59.64
11678;BME280;5895;41.950;24.372;2023-03-20T06:46:22;87008.31;;;5.23;59.23
11678;BME280;5895;41.950;24.372;2023-03-20T06:48:51;87010.38;;;5.48;57.86
11678;BME280;5895;41.950;24.372;2023-03-20T06:51:18;87012.63;;;5.71;57.83
11678;BME280;5895;41.950;24.372;2023-03-20T06:53:45;87016.44;;;5.95;57.30
11678;BME280;5895;41.950;24.372;2023-03-20T06:56:12;87018.88;;;6.16;56.77
11678;BME280;5895;41.950;24.372;2023-03-20T06:58:39;87014.13;;;6.40;56.49
11678;BME280;5895;41.950;24.372;2023-03-20T07:01:09;87016.50;;;6.61;55.27
11678;BME280;5895;41.950;24.372;2023-03-20T07:03:37;87019.66;;;6.83;55.76
11678;BME280;5895;41.950;24.372;2023-03-20T07:06:08;87016.06;;;7.04;54.88
11678;BME280;5895;41.950;24.372;2023-03-20T07:08:36;87007.31;;;7.25;55.36
11678;BME280;5895;41.950;24.372;2023-03-20T07:11:03;87006.03;;;7.47;54.86
11678;BME280;5895;41.950;24.372;2023-03-20T07:13:30;87001.22;;;7.64;53.71
11678;BME280;5895;41.950;24.372;2023-03-20T07:15:59;86996.72;;;7.84;53.89
11678;BME280;5895;41.950;24.372;2023-03-20T07:18:28;87002.16;;;8.08;53.29
11678;BME280;5895;41.950;24.372;2023-03-20T07:20:58;86998.69;;;8.27;51.34
11678;BME280;5895;41.950;24.372;2023-03-20T07:23:28;87000.78;;;8.43;52.18
11678;BME280;5895;41.950;24.372;2023-03-20T07:25:56;87003.88;;;8.59;52.08
11678;BME280;5895;41.950;24.372;2023-03-20T07:28:23;87003.31;;;8.75;51.62
11678;BME280;5895;41.950;24.372;2023-03-20T07:30:50;86996.03;;;8.90;51.55
11678;BME280;5895;41.950;24.372;2023-03-20T07:33:17;86999.25;;;9.11;51.63
11678;BME280;5895;41.950;24.372;2023-03-20T07:35:45;87006.47;;;9.27;51.24
11678;BME280;5895;41.950;24.372;2023-03-20T07:38:12;86999.94;;;9.43;50.70
11678;BME280;5895;41.950;24.372;2023-03-20T07:40:41;87005.75;;;9.57;48.16
11678;BME280;5895;41.950;24.372;2023-03-20T07:43:08;87001.41;;;9.69;49.77
11678;BME280;5895;41.950;24.372;2023-03-20T07:45:35;87004.28;;;9.79;49.27
11678;BME280;5895;41.950;24.372;2023-03-20T07:48:02;87003.78;;;9.89;48.83
11678;BME280;5895;41.950;24.372;2023-03-20T07:50:29;87000.66;;;9.98;48.82
11678;BME280;5895;41.950;24.372;2023-03-20T07:52:56;87009.31;;;10.11;48.52
11678;BME280;5895;41.950;24.372;2023-03-20T07:55:23;87004.38;;;10.21;48.32
11678;BME280;5895;41.950;24.372;2023-03-20T07:57:52;87003.66;;;10.32;46.83
11678;BME280;5895;41.950;24.372;2023-03-20T08:00:19;87013.41;;;10.48;47.33
11678;BME280;5895;41.950;24.372;2023-03-20T08:02:46;87008.03;;;10.62;48.15
11678;BME280;5895;41.950;24.372;2023-03-20T08:05:14;87005.47;;;10.73;48.10
11678;BME280;5895;41.950;24.372;2023-03-20T08:07:41;87001.66;;;10.88;48.05
11678;BME280;5895;41.950;24.372;2023-03-20T08:10:09;87001.47;;;11.01;47.45
11678;BME280;5895;41.950;24.372;2023-03-20T08:12:36;87012.88;;;11.11;47.22
11678;BME280;5895;41.950;24.372;2023-03-20T08:15:05;87004.28;;;11.23;46.01
11678;BME280;5895;41.950;24.372;2023-03-20T08:17:33;86999.41;;;11.38;46.60
11678;BME280;5895;41.950;24.372;2023-03-20T08:20:00;87000.00;;;11.52;46.80
11678;BME280;5895;41.950;24.372;2023-03-20T08:22:28;87002.91;;;11.67;46.59
11678;BME280;5895;41.950;24.372;2023-03-20T08:24:55;87000.50;;;11.77;46.72
11678;BME280;5895;41.950;24.372;2023-03-20T08:27:22;87006.50;;;11.89;46.32
11678;BME280;5895;41.950;24.372;2023-03-20T08:29:49;87001.75;;;11.98;44.89
11678;BME280;5895;41.950;24.372;2023-03-20T08:32:18;87008.50;;;12.11;44.72
11678;BME280;5895;41.950;24.372;2023-03-20T08:34:45;87010.84;;;12.24;45.28
11678;BME280;5895;41.950;24.372;2023-03-20T08:37:12;87010.56;;;12.37;45.66
11678;BME280;5895;41.950;24.372;2023-03-20T08:39:40;86998.00;;;12.46;45.98
11678;BME280;5895;41.950;24.372;2023-03-20T08:42:07;87006.53;;;12.58;44.53
11678;BME280;5895;41.950;24.372;2023-03-20T08:44:34;87001.56;;;12.74;45.26
11678;BME280;5895;41.950;24.372;2023-03-20T08:47:01;87005.81;;;12.91;44.99
11678;BME280;5895;41.950;24.372;2023-03-20T08:49:31;86998.53;;;12.93;43.40
11678;BME280;5895;41.950;24.372;2023-03-20T08:51:59;87004.81;;;13.09;44.76
11678;BME280;5895;41.950;24.372;2023-03-20T08:54:26;86999.88;;;13.25;45.79
11678;BME280;5895;41.950;24.372;2023-03-20T08:56:53;86996.44;;;13.41;45.03
11678;BME280;5895;41.950;24.372;2023-03-20T08:59:21;86998.72;;;13.54;44.76
11678;BME280;5895;41.950;24.372;2023-03-20T09:01:48;87000.44;;;13.82;45.68
11678;BME280;5895;41.950;24.372;2023-03-20T09:04:15;87002.69;;;14.17;46.11
11678;BME280;5895;41.950;24.372;2023-03-20T09:06:43;86998.47;;;14.55;44.59
11678;BME280;5895;41.950;24.372;2023-03-20T09:09:10;87000.56;;;14.80;45.20
11678;BME280;5895;41.950;24.372;2023-03-20T09:11:40;87003.13;;;15.02;45.11
11678;BME280;5895;41.950;24.372;2023-03-20T09:14:07;87008.81;;;15.26;45.04
11678;BME280;5895;41.950;24.372;2023-03-20T09:16:34;87009.00;;;15.46;44.78
11678;BME280;5895;41.950;24.372;2023-03-20T09:19:01;87004.53;;;15.74;44.94
11678;BME280;5895;41.950;24.372;2023-03-20T09:21:28;87008.03;;;15.90;44.54
11678;BME280;5895;41.950;24.372;2023-03-20T09:23:57;87005.00;;;16.08;43.03
11678;BME280;5895;41.950;24.372;2023-03-20T09:26:24;87008.22;;;16.25;44.78
11678;BME280;5895;41.950;24.372;2023-03-20T09:28:51;87015.13;;;16.42;44.18
11678;BME280;5895;41.950;24.372;2023-03-20T09:31:18;87008.38;;;16.51;44.61
11678;BME280;5895;41.950;24.372;2023-03-20T09:33:45;87008.13;;;16.57;44.91
11678;BME280;5895;41.950;24.372;2023-03-20T09:36:12;87006.84;;;16.70;44.29
11678;BME280;5895;41.950;24.372;2023-03-20T09:38:40;86997.47;;;16.74;44.02
11678;BME280;5895;41.950;24.372;2023-03-20T09:41:13;87000.66;;;16.86;39.63
11678;BME280;5895;41.950;24.372;2023-03-20T09:43:53;87007.75;;;16.91;38.30
11678;BME280;5895;41.950;24.372;2023-03-20T09:46:31;87006.19;;;16.90;37.80
11678;BME280;5895;41.950;24.372;2023-03-20T09:49:08;87000.69;;;16.97;41.55
11678;BME280;5895;41.950;24.372;2023-03-20T09:51:43;86997.56;;;17.10;39.75
11678;BME280;5895;41.950;24.372;2023-03-20T09:54:19;86998.63;;;17.24;39.97
11678;BME280;5895;41.950;24.372;2023-03-20T09:56:49;86997.59;;;17.35;38.83
11678;BME280;5895;41.950;24.372;2023-03-20T09:59:18;87001.03;;;17.51;43.63
11678;BME280;5895;41.950;24.372;2023-03-20T10:01:49;86994.47;;;17.69;40.04
11678;BME280;5895;41.950;24.372;2023-03-20T10:04:17;86993.97;;;17.87;43.39
11678;BME280;5895;41.950;24.372;2023-03-20T10:06:45;86987.66;;;18.04;43.68
11678;BME280;5895;41.950;24.372;2023-03-20T10:09:16;86991.03;;;18.14;41.28
11678;BME280;5895;41.950;24.372;2023-03-20T10:12:02;86988.91;;;18.32;34.72
11678;BME280;5895;41.950;24.372;2023-03-20T10:14:42;86985.97;;;18.48;38.89
11678;BME280;5895;41.950;24.372;2023-03-20T10:17:23;86984.31;;;18.63;33.54
11678;BME280;5895;41.950;24.372;2023-03-20T10:19:56;86986.44;;;18.76;39.01
11678;BME280;5895;41.950;24.372;2023-03-20T10:22:27;86978.97;;;18.98;41.93
11678;BME280;5895;41.950;24.372;2023-03-20T10:25:01;86977.84;;;19.10;38.59
11678;BME280;5895;41.950;24.372;2023-03-20T10:27:36;86977.78;;;19.25;39.50
11678;BME280;5895;41.950;24.372;2023-03-20T10:30:23;86975.56;;;19.42;32.52
11678;BME280;5895;41.950;24.372;2023-03-20T10:33:00;86972.31;;;19.55;36.83
11678;BME280;5895;41.950;24.372;2023-03-20T10:35:37;86969.09;;;19.64;35.18
11678;BME280;5895;41.950;24.372;2023-03-20T10:38:14;86962.25;;;19.68;34.85
11678;BME280;5895;41.950;24.372;2023-03-20T10:40:44;86961.66;;;19.76;41.88
11678;BME280;5895;41.950;24.372;2023-03-20T10:43:17;86956.81;;;19.88;37.06
11678;BME280;5895;41.950;24.372;2023-03-20T10:45:47;86960.38;;;20.02;40.93
11678;BME280;5895;41.950;24.372;2023-03-20T10:48:21;86953.41;;;20.17;35.41
11678;BME280;5895;41.950;24.372;2023-03-20T10:50:54;86954.28;;;20.31;39.66
11678;BME280;5895;41.950;24.372;2023-03-20T10:53:29;86949.44;;;20.48;34.63
11678;BME280;5895;41.950;24.372;2023-03-20T10:55:59;86945.63;;;20.59;39.79
11678;BME280;5895;41.950;24.372;2023-03-20T10:58:31;86954.91;;;20.76;36.94
11678;BME280;5895;41.950;24.372;2023-03-20T11:00:59;86945.72;;;20.92;41.10
11678;BME280;5895;41.950;24.372;2023-03-20T11:03:29;86943.97;;;21.06;40.55
11678;BME280;5895;41.950;24.372;2023-03-20T11:06:00;86944.28;;;21.24;36.49
11678;BME280;5895;41.950;24.372;2023-03-20T11:08:36;86932.72;;;21.20;36.91
11678;BME280;5895;41.950;24.372;2023-03-20T11:11:05;86934.22;;;21.07;40.78
11678;BME280;5895;41.950;24.372;2023-03-20T11:13:35;86929.13;;;20.92;37.37
11678;BME280;5895;41.950;24.372;2023-03-20T11:16:18;86932.53;;;20.92;31.50
11678;BME280;5895;41.950;24.372;2023-03-20T11:18:46;86927.78;;;20.94;40.83
11678;BME280;5895;41.950;24.372;2023-03-20T11:21:18;86924.94;;;21.09;38.68
11678;BME280;5895;41.950;24.372;2023-03-20T11:23:46;86913.41;;;21.24;40.26
11678;BME280;5895;41.950;24.372;2023-03-20T11:26:14;86908.56;;;21.31;40.41
11678;BME280;5895;41.950;24.372;2023-03-20T11:28:49;86913.63;;;21.47;35.05
11678;BME280;5895;41.950;24.372;2023-03-20T11:31:19;86903.38;;;21.45;37.60
11678;BME280;5895;41.950;24.372;2023-03-20T11:33:52;86904.25;;;21.54;38.38
11678;BME280;5895;41.950;24.372;2023-03-20T11:36:27;86903.22;;;21.55;39.09
11678;BME280;5895;41.950;24.372;2023-03-20T11:39:00;86896.94;;;21.51;35.08
11678;BME280;5895;41.950;24.372;2023-03-20T11:41:27;86900.44;;;21.47;39.72
11678;BME280;5895;41.950;24.372;2023-03-20T11:43:56;86889.25;;;21.36;38.55
11678;BME280;5895;41.950;24.372;2023-03-20T11:46:24;86897.78;;;21.28;39.50
11678;BME280;5895;41.950;24.372;2023-03-20T11:49:03;86888.78;;;21.29;31.26
11678;BME280;5895;41.950;24.372;2023-03-20T11:51:31;86884.22;;;21.16;39.74
11678;BME280;5895;41.950;24.372;2023-03-20T11:54:02;86895.78;;;21.20;39.39
11678;BME280;5895;41.950;24.372;2023-03-20T11:56:32;86896.28;;;21.22;36.36
11678;BME280;5895;41.950;24.372;2023-03-20T11:59:03;86893.56;;;21.08;35.43
11678;BME280;5895;41.950;24.372;2023-03-20T12:01:38;86889.59;;;21.10;32.44
11678;BME280;5895;41.950;24.372;2023-03-20T12:04:13;86892.22;;;21.10;38.74
11678;BME280;5895;41.950;24.372;2023-03-20T12:06:45;86891.63;;;21.13;36.85
11678;BME280;5895;41.950;24.372;2023-03-20T12:09:29;86892.22;;;21.10;31.55
11678;BME280;5895;41.950;24.372;2023-03-20T12:12:00;86892.13;;;20.97;37.73
11678;BME280;5895;41.950;24.372;2023-03-20T12:14:36;86887.03;;;20.63;34.56
11678;BME280;5895;41.950;24.372;2023-03-20T12:17:26;86890.31;;;20.54;31.10
11678;BME280;5895;41.950;24.372;2023-03-20T12:20:00;86886.91;;;20.73;37.95
11678;BME280;5895;41.950;24.372;2023-03-20T12:22:30;86885.72;;;20.84;37.64
11678;BME280;5895;41.950;24.372;2023-03-20T12:25:04;86890.94;;;20.89;35.78
11678;BME280;5895;41.950;24.372;2023-03-20T12:27:36;86888.88;;;20.62;39.15
11678;BME280;5895;41.950;24.372;2023-03-20T12:30:09;86890.06;;;20.27;33.40
11678;BME280;5895;41.950;24.372;2023-03-20T12:32:43;86888.75;;;20.00;37.76
11678;BME280;5895;41.950;24.372;2023-03-20T12:35:15;86882.81;;;20.14;38.66
11678;BME280;5895;41.950;24.372;2023-03-20T12:37:44;86880.41;;;20.41;40.00
11678;BME280;5895;41.950;24.372;2023-03-20T12:40:14;86883.44;;;20.53;38.37
11678;BME280;5895;41.950;24.372;2023-03-20T12:42:53;86891.53;;;20.81;33.28
11678;BME280;5895;41.950;24.372;2023-03-20T12:45:27;86878.09;;;21.01;33.74
11678;BME280;5895;41.950;24.372;2023-03-20T12:50:55;86879.53;;;21.12;35.86
11678;BME280;5895;41.950;24.372;2023-03-20T12:53:46;86877.53;;;21.23;31.55
11678;BME280;5895;41.950;24.372;2023-03-20T12:56:29;86872.09;;;21.14;30.26
11678;BME280;5895;41.950;24.372;2023-03-20T12:59:06;86884.81;;;21.12;34.41
11678;BME280;5895;41.950;24.372;2023-03-20T13:01:42;86879.03;;;21.29;31.88
11678;BME280;5895;41.950;24.372;2023-03-20T13:04:36;86881.50;;;21.21;29.88
11678;BME280;5895;41.950;24.372;2023-03-20T13:07:17;86889.72;;;21.00;32.44
11678;BME280;5895;41.950;24.372;2023-03-20T13:10:12;86871.69;;;21.07;27.91
11678;BME280;5895;41.950;24.372;2023-03-20T13:12:48;86865.13;;;21.24;35.56
11678;BME280;5895;41.950;24.372;2023-03-20T13:15:23;86870.84;;;21.31;32.69
11678;BME280;5895;41.950;24.372;2023-03-20T13:18:00;86865.91;;;21.24;30.49
11678;BME280;5895;41.950;24.372;2023-03-20T13:20:32;86871.03;;;20.97;36.63
11678;BME280;5895;41.950;24.372;2023-03-20T13:23:09;86871.88;;;20.92;32.70
11678;BME280;5895;41.950;24.372;2023-03-20T13:25:50;86864.47;;;21.13;31.98
11678;BME280;5895;41.950;24.372;2023-03-20T13:28:25;86865.66;;;21.21;34.87
11678;BME280;5895;41.950;24.372;2023-03-20T13:31:01;86862.69;;;21.08;32.40
11678;BME280;5895;41.950;24.372;2023-03-20T13:33:42;86861.63;;;20.91;30.85